createdAt,value
2022-09-17T00:02:00.114Z,4.65
2022-09-17T00:04:28.001Z,4.55
2022-09-17T00:06:54.926Z,5.03
2022-09-17T00:09:22.145Z,4.85
2022-09-17T00:11:48.983Z,4.95
2022-09-17T00:14:17.512Z,5.10
2022-09-17T00:16:46.770Z,5.30
2022-09-17T00:19:18.075Z,5.05
2022-09-17T00:21:45.025Z,6.18
2022-09-17T00:24:13.746Z,5.07
2022-09-17T00:26:40.988Z,4.80
2022-09-17T00:29:45.619Z,5.35
2022-09-17T00:32:12.469Z,5.43
2022-09-17T00:34:39.257Z,4.93
2022-09-17T00:37:06.133Z,5.30
2022-09-17T00:39:54.023Z,5.25
2022-09-17T00:42:22.720Z,5.70
2022-09-17T00:44:53.040Z,5.72
2022-09-17T00:47:36.629Z,5.30
2022-09-17T00:50:28.901Z,5.03
2022-09-17T00:53:18.418Z,5.72
2022-09-17T00:56:11.503Z,5.53
2022-09-17T00:58:41.505Z,5.40
2022-09-17T01:01:08.673Z,5.80
2022-09-17T01:03:35.666Z,5.70
2022-09-17T01:06:17.494Z,5.55
2022-09-17T01:09:22.095Z,5.70
2022-09-17T01:12:00.843Z,5.50
2022-09-17T01:14:30.429Z,6.00
2022-09-17T01:17:15.141Z,5.55
2022-09-17T01:20:16.754Z,5.85
2022-09-17T01:23:17.123Z,5.40
2022-09-17T01:25:52.439Z,5.80
2022-09-17T01:28:32.844Z,6.10
2022-09-17T01:31:11.680Z,5.25
2022-09-17T01:33:53.556Z,5.63
2022-09-17T01:36:45.145Z,5.72
2022-09-17T01:39:30.447Z,5.75
2022-09-17T01:42:14.847Z,5.60
2022-09-17T01:44:51.752Z,5.78
2022-09-17T01:47:39.601Z,5.55
2022-09-17T01:50:12.708Z,5.85
2022-09-17T01:52:43.437Z,6.00
2022-09-17T01:55:14.956Z,5.60
2022-09-17T01:57:45.361Z,5.80
2022-09-17T02:00:34.296Z,5.43
2022-09-17T02:03:14.899Z,5.50
2022-09-17T02:06:14.564Z,6.30
2022-09-17T02:09:05.613Z,6.55
2022-09-17T02:11:37.096Z,6.35
2022-09-17T02:14:08.165Z,6.65
2022-09-17T02:16:37.618Z,6.30
2022-09-17T02:19:06.849Z,6.47
2022-09-17T02:21:58.459Z,6.93
2022-09-17T02:24:29.892Z,6.80
2022-09-17T02:27:07.269Z,6.85
2022-09-17T02:29:43.324Z,7.28
2022-09-17T02:32:11.625Z,7.07
2022-09-17T02:34:39.228Z,7.13
2022-09-17T02:37:07.211Z,7.57
2022-09-17T02:39:38.543Z,7.15
2022-09-17T02:42:13.245Z,7.60
2022-09-17T02:45:05.398Z,6.60
2022-09-17T02:48:04.482Z,7.55
2022-09-17T02:51:10.854Z,7.47
2022-09-17T02:53:46.390Z,7.30
2022-09-17T02:56:28.507Z,7.75
2022-09-17T02:59:12.419Z,7.13
2022-09-17T03:01:42.217Z,7.60
2022-09-17T03:04:12.571Z,7.60
2022-09-17T03:06:41.204Z,7.13
2022-09-17T03:09:09.993Z,7.43
2022-09-17T03:11:37.008Z,7.60
2022-09-17T03:14:04.543Z,7.70
2022-09-17T03:16:31.419Z,7.75
2022-09-17T03:18:58.519Z,7.68
2022-09-17T03:21:25.420Z,7.53
2022-09-17T03:23:52.943Z,7.50
2022-09-17T03:26:19.980Z,7.20
2022-09-17T03:28:49.158Z,7.45
2022-09-17T03:31:16.057Z,7.78
2022-09-17T03:33:42.940Z,7.28
2022-09-17T03:36:09.784Z,8.07
2022-09-17T03:38:38.614Z,7.40
2022-09-17T03:41:09.568Z,7.00
2022-09-17T03:43:36.435Z,8.05
2022-09-17T03:46:03.688Z,7.55
2022-09-17T03:48:32.259Z,7.65
2022-09-17T03:50:59.076Z,7.30
2022-09-17T03:53:25.866Z,7.35
2022-09-17T03:55:52.726Z,7.15
2022-09-17T03:58:19.532Z,7.10
2022-09-17T04:01:24.208Z,7.32
2022-09-17T04:03:51.020Z,7.60
2022-09-17T04:06:17.796Z,7.93
2022-09-17T04:08:44.899Z,6.82
2022-09-17T04:11:12.072Z,7.43
2022-09-17T04:13:38.973Z,7.07
2022-09-17T04:16:06.113Z,7.40
2022-09-17T04:18:33.365Z,8.43
2022-09-17T04:21:00.268Z,7.50
2022-09-17T04:23:27.133Z,7.80
2022-09-17T04:25:54.004Z,7.30
2022-09-17T04:28:20.936Z,7.93
2022-09-17T04:31:27.883Z,7.30
2022-09-17T04:33:54.726Z,7.97
2022-09-17T04:36:21.576Z,7.72
2022-09-17T04:38:50.114Z,7.70
2022-09-17T04:41:17.108Z,7.70
2022-09-17T04:43:43.943Z,7.70
2022-09-17T04:46:11.131Z,7.70
2022-09-17T04:48:38.278Z,7.85
2022-09-17T04:51:05.632Z,7.28
2022-09-17T04:53:32.440Z,8.18
2022-09-17T04:55:59.455Z,7.10
2022-09-17T04:58:26.340Z,7.55
2022-09-17T05:00:53.285Z,7.03
2022-09-17T05:03:20.213Z,7.70
2022-09-17T05:05:47.103Z,7.35
2022-09-17T05:08:13.949Z,7.50
2022-09-17T05:11:18.460Z,7.45
2022-09-17T05:16:12.243Z,7.20
2022-09-17T05:18:59.247Z,7.55
2022-09-17T05:21:26.279Z,7.40
2022-09-17T05:23:53.075Z,7.35
2022-09-17T05:26:19.936Z,7.72
2022-09-17T05:29:26.496Z,7.63
2022-09-17T05:31:53.570Z,7.35
2022-09-17T05:34:20.374Z,7.45
2022-09-17T05:36:47.310Z,7.93
2022-09-17T05:39:52.940Z,7.65
2022-09-17T05:42:19.787Z,7.78
2022-09-17T05:44:46.629Z,7.70
2022-09-17T05:47:13.486Z,7.43
2022-09-17T05:50:19.101Z,8.05
2022-09-17T05:52:45.940Z,7.85
2022-09-17T05:55:12.849Z,7.85
2022-09-17T05:57:39.671Z,7.30
2022-09-17T06:00:08.599Z,7.88
2022-09-17T06:02:39.292Z,7.68
2022-09-17T06:05:06.779Z,7.35
2022-09-17T06:07:36.591Z,7.78
2022-09-17T06:10:09.795Z,7.88
2022-09-17T06:12:36.727Z,7.60
2022-09-17T06:15:07.433Z,8.18
2022-09-17T06:17:35.766Z,8.23
2022-09-17T06:20:06.375Z,7.85
2022-09-17T06:22:33.562Z,8.40
2022-09-17T06:25:02.259Z,8.45
2022-09-17T06:27:33.172Z,8.55
2022-09-17T06:30:01.567Z,9.02
2022-09-17T06:32:28.969Z,8.75
2022-09-17T06:34:57.393Z,9.35
2022-09-17T06:37:32.286Z,9.02
2022-09-17T06:40:00.565Z,9.10
2022-09-17T06:42:28.836Z,8.57
2022-09-17T06:44:58.853Z,9.68
2022-09-17T06:47:26.791Z,9.40
2022-09-17T06:49:54.675Z,8.30
2022-09-17T06:52:21.482Z,9.50
2022-09-17T06:54:48.340Z,9.63
2022-09-17T06:57:15.316Z,9.10
2022-09-17T06:59:42.958Z,9.10
2022-09-17T07:02:09.988Z,9.57
2022-09-17T07:04:36.807Z,9.75
2022-09-17T07:07:05.186Z,8.82
2022-09-17T07:09:32.231Z,9.20
2022-09-17T07:11:59.109Z,9.07
2022-09-17T07:14:25.947Z,9.20
2022-09-17T07:16:53.291Z,8.80
2022-09-17T07:19:20.257Z,8.90
2022-09-17T07:21:49.196Z,8.40
2022-09-17T07:24:16.047Z,8.80
2022-09-17T07:26:42.900Z,8.30
2022-09-17T07:29:14.963Z,7.82
2022-09-17T07:31:41.934Z,8.02
2022-09-17T07:34:10.778Z,7.32
2022-09-17T07:36:37.923Z,7.65
2022-09-17T07:39:06.111Z,10.32
2022-09-17T07:41:34.411Z,6.32
2022-09-17T07:44:02.522Z,9.50
2022-09-17T07:46:30.091Z,6.30
2022-09-17T07:49:25.051Z,6.10
2022-09-17T07:51:52.126Z,9.55
2022-09-17T07:54:18.936Z,5.15
2022-09-17T07:56:45.760Z,8.90
2022-09-17T07:59:13.107Z,5.90
2022-09-17T08:01:40.681Z,4.90
2022-09-17T08:04:07.829Z,8.43
2022-09-17T08:06:38.166Z,4.72
2022-09-17T08:09:05.354Z,8.93
2022-09-17T08:14:20.152Z,4.30
2022-09-17T08:16:47.407Z,4.55
2022-09-17T08:19:54.502Z,8.60
2022-09-17T08:22:21.346Z,7.65
2022-09-17T08:24:48.387Z,3.17
2022-09-17T08:27:15.176Z,4.07
2022-09-17T08:29:42.029Z,8.32
2022-09-17T08:32:08.897Z,6.85
2022-09-17T08:34:37.092Z,9.20
2022-09-17T08:37:03.967Z,7.03
2022-09-17T08:39:31.116Z,7.60
2022-09-17T08:42:05.847Z,7.95
2022-09-17T08:44:36.957Z,7.10
2022-09-17T08:47:13.100Z,7.40
2022-09-17T08:49:51.838Z,6.35
2022-09-17T08:52:39.810Z,5.93
2022-09-17T08:55:11.636Z,5.30
2022-09-17T08:58:00.130Z,5.50
2022-09-17T09:00:39.021Z,6.18
2022-09-17T09:03:22.240Z,5.03
2022-09-17T09:05:52.580Z,6.05
2022-09-17T09:08:43.634Z,6.07
2022-09-17T09:11:21.938Z,4.82
2022-09-17T09:13:57.826Z,5.60
2022-09-17T09:16:29.562Z,5.85
2022-09-17T09:19:04.349Z,6.03
2022-09-17T09:21:45.520Z,5.38
2022-09-17T09:24:28.681Z,5.13
2022-09-17T09:27:18.976Z,4.97
2022-09-17T09:30:10.468Z,5.25
2022-09-17T09:32:59.171Z,4.95
2022-09-17T09:35:29.008Z,4.68
2022-09-17T09:38:33.839Z,5.45
2022-09-17T09:41:11.751Z,5.10
2022-09-17T09:44:07.132Z,5.68
2022-09-17T09:47:08.030Z,4.57
2022-09-17T09:49:59.387Z,5.00
2022-09-17T09:52:34.479Z,4.63
2022-09-17T09:55:27.005Z,4.90
2022-09-17T09:58:06.015Z,4.47
2022-09-17T10:00:40.480Z,4.75
2022-09-17T10:03:13.128Z,4.10
2022-09-17T10:05:40.974Z,5.20
2022-09-17T10:08:12.697Z,5.18
2022-09-17T10:10:54.877Z,3.53
2022-09-17T10:13:22.097Z,5.18
2022-09-17T10:15:49.040Z,4.38
2022-09-17T10:18:26.299Z,4.03
2022-09-17T10:20:59.383Z,3.75
2022-09-17T10:23:28.912Z,3.60
2022-09-17T10:25:56.140Z,3.13
2022-09-17T10:28:29.007Z,3.50
2022-09-17T10:31:09.152Z,3.92
2022-09-17T10:33:40.308Z,2.83
2022-09-17T10:36:14.695Z,3.05
2022-09-17T10:38:46.168Z,2.97
2022-09-17T10:41:22.059Z,3.15
2022-09-17T10:43:52.341Z,2.70
2022-09-17T10:46:28.002Z,2.80
2022-09-17T10:49:32.591Z,2.58
2022-09-17T10:52:29.223Z,2.65
2022-09-17T10:55:16.671Z,2.38
2022-09-17T10:58:08.434Z,2.20
2022-09-17T11:01:13.301Z,2.22
2022-09-17T11:04:01.787Z,2.35
2022-09-17T11:06:43.946Z,1.98
2022-09-17T11:09:15.560Z,2.20
2022-09-17T11:12:04.119Z,2.25
2022-09-17T11:14:38.036Z,2.15
2022-09-17T11:17:25.547Z,2.10
2022-09-17T11:20:04.465Z,2.10
2022-09-17T11:22:46.996Z,1.77
2022-09-17T11:25:31.740Z,2.92
2022-09-17T11:28:18.744Z,1.80
2022-09-17T11:31:24.808Z,1.77
2022-09-17T11:34:09.373Z,1.70
2022-09-17T11:36:59.115Z,1.70
2022-09-17T11:39:39.823Z,1.70
2022-09-17T11:42:11.786Z,2.03
2022-09-17T11:44:53.639Z,1.80
2022-09-17T11:47:35.967Z,1.77
2022-09-17T11:50:22.012Z,1.80
2022-09-17T11:53:14.127Z,1.90
2022-09-17T11:55:49.200Z,1.73
2022-09-17T11:58:38.819Z,1.48
2022-09-17T12:01:16.255Z,1.60
2022-09-17T12:03:51.613Z,1.60
2022-09-17T12:06:26.048Z,1.40
2022-09-17T12:09:17.571Z,1.33
2022-09-17T12:12:05.687Z,1.67
2022-09-17T12:14:44.353Z,1.38
2022-09-17T12:17:20.534Z,1.52
2022-09-17T12:20:05.186Z,1.50
2022-09-17T12:22:40.142Z,1.48
2022-09-17T12:25:13.111Z,1.30
2022-09-17T12:27:56.513Z,1.40
2022-09-17T12:30:35.352Z,1.48
2022-09-17T12:33:25.224Z,1.77
2022-09-17T12:36:17.628Z,1.20
2022-09-17T12:39:16.947Z,1.60
2022-09-17T12:42:19.197Z,1.45
2022-09-17T12:45:23.477Z,1.60
2022-09-17T12:48:13.296Z,1.38
2022-09-17T12:51:02.690Z,1.48
2022-09-17T12:53:52.807Z,1.67
2022-09-17T12:56:46.796Z,1.30
2022-09-17T12:59:19.432Z,1.45
2022-09-17T13:02:00.847Z,1.42
2022-09-17T13:04:56.789Z,1.42
2022-09-17T13:07:51.376Z,1.27
2022-09-17T13:10:52.935Z,1.30
2022-09-17T13:13:26.728Z,1.40
2022-09-17T13:16:30.541Z,1.20
2022-09-17T13:19:41.604Z,1.40
2022-09-17T13:22:19.035Z,1.02
2022-09-17T13:24:48.981Z,1.23
2022-09-17T13:27:28.247Z,1.10
2022-09-17T13:29:56.328Z,1.10
2022-09-17T13:32:35.446Z,1.20
2022-09-17T13:35:17.117Z,1.02
2022-09-17T13:37:54.032Z,1.20
2022-09-17T13:40:30.357Z,1.17
2022-09-17T13:43:09.978Z,1.20
2022-09-17T13:45:58.632Z,1.17
2022-09-17T13:48:31.736Z,1.10
2022-09-17T13:51:30.589Z,1.30
2022-09-17T13:54:00.192Z,1.10
2022-09-17T13:56:45.857Z,0.95
2022-09-17T13:59:21.676Z,1.23
2022-09-17T14:02:08.014Z,1.10
2022-09-17T14:04:41.335Z,1.10
2022-09-17T14:07:23.599Z,0.93
2022-09-17T14:09:52.715Z,1.20
2022-09-17T14:12:41.473Z,1.08
2022-09-17T14:15:43.954Z,1.27
2022-09-17T14:18:28.947Z,1.15
2022-09-17T14:21:24.505Z,1.00
2022-09-17T14:23:57.048Z,1.27
2022-09-17T14:26:43.315Z,1.10
2022-09-17T14:29:43.681Z,1.20
2022-09-17T14:32:21.906Z,1.20
2022-09-17T14:34:49.715Z,1.35
2022-09-17T14:37:20.671Z,1.20
2022-09-17T14:39:49.638Z,1.10
2022-09-17T14:42:22.403Z,1.23
2022-09-17T14:44:59.344Z,1.20
2022-09-17T14:47:27.555Z,1.13
2022-09-17T14:50:19.335Z,1.27
2022-09-17T14:52:51.515Z,1.15
2022-09-17T14:55:19.877Z,1.30
2022-09-17T14:57:56.261Z,1.30
2022-09-17T15:01:01.648Z,0.98
2022-09-17T15:03:28.448Z,1.17
2022-09-17T15:05:55.389Z,1.00
2022-09-17T15:08:25.087Z,1.17
2022-09-17T15:10:52.178Z,1.48
2022-09-17T15:13:29.072Z,1.02
2022-09-17T15:15:59.064Z,1.00
2022-09-17T15:18:37.148Z,1.35
2022-09-17T15:21:11.323Z,1.40
2022-09-17T15:23:38.584Z,1.20
2022-09-17T15:26:06.425Z,1.00
2022-09-17T15:28:43.861Z,1.10
2022-09-17T15:31:18.191Z,1.27
2022-09-17T15:33:46.069Z,0.98
2022-09-17T15:36:33.236Z,0.95
2022-09-17T15:39:31.202Z,1.00
2022-09-17T15:41:58.506Z,1.05
2022-09-17T15:44:31.505Z,1.10
2022-09-17T15:47:38.771Z,1.00
2022-09-17T15:50:18.171Z,1.25
2022-09-17T15:52:45.665Z,1.05
2022-09-17T15:55:37.138Z,1.02
2022-09-17T15:58:19.257Z,0.80
2022-09-17T16:00:46.561Z,1.00
2022-09-17T16:03:48.715Z,1.02
2022-09-17T16:06:18.668Z,1.15
2022-09-17T16:08:50.894Z,1.00
2022-09-17T16:11:22.572Z,1.00
2022-09-17T16:13:50.748Z,1.25
2022-09-17T16:16:19.766Z,1.30
2022-09-17T16:18:48.835Z,1.40
2022-09-17T16:21:17.535Z,1.35
2022-09-17T16:23:45.249Z,1.50
2022-09-17T16:26:33.677Z,1.60
2022-09-17T16:29:10.779Z,1.67
2022-09-17T16:31:37.749Z,1.40
2022-09-17T16:34:04.836Z,1.70
2022-09-17T16:36:32.372Z,1.60
2022-09-17T16:39:37.298Z,1.58
2022-09-17T16:42:04.309Z,1.85
2022-09-17T16:44:31.144Z,2.03
2022-09-17T16:46:58.041Z,1.70
2022-09-17T16:49:25.340Z,2.00
2022-09-17T16:51:52.207Z,2.15
2022-09-17T16:54:19.038Z,2.20
2022-09-17T16:56:46.044Z,2.53
2022-09-17T16:59:13.145Z,2.10
2022-09-17T17:01:40.001Z,2.30
2022-09-17T17:04:07.381Z,2.58
2022-09-17T17:06:34.213Z,2.53
2022-09-17T17:09:02.430Z,2.17
2022-09-17T17:11:29.303Z,2.20
2022-09-17T17:13:56.331Z,2.30
2022-09-17T17:16:25.394Z,2.47
2022-09-17T17:18:53.387Z,2.45
2022-09-17T17:21:21.403Z,2.85
2022-09-17T17:23:48.388Z,2.67
2022-09-17T17:26:16.754Z,3.03
2022-09-17T17:28:49.196Z,3.10
2022-09-17T17:31:16.194Z,2.67
2022-09-17T17:33:43.084Z,3.30
2022-09-17T17:36:10.087Z,2.78
2022-09-17T17:38:37.386Z,3.05
2022-09-17T17:41:10.002Z,2.67
2022-09-17T17:43:37.320Z,3.22
2022-09-17T17:46:09.163Z,3.38
2022-09-17T17:48:38.705Z,3.08
2022-09-17T17:51:10.596Z,3.25
2022-09-17T17:53:37.962Z,3.05
2022-09-17T17:56:06.823Z,2.70
2022-09-17T17:58:34.078Z,3.58
2022-09-17T18:01:08.991Z,3.40
2022-09-17T18:03:36.024Z,3.60
2022-09-17T18:06:05.968Z,3.53
2022-09-17T18:08:35.009Z,3.50
2022-09-17T18:11:04.156Z,3.53
2022-09-17T18:13:31.296Z,3.80
2022-09-17T18:16:00.579Z,4.05
2022-09-17T18:18:44.197Z,4.43
2022-09-17T18:21:15.810Z,4.78
2022-09-17T18:23:42.813Z,3.85
2022-09-17T18:26:19.435Z,4.82
2022-09-17T18:29:08.323Z,3.75
2022-09-17T18:31:36.009Z,4.63
2022-09-17T18:34:04.352Z,4.50
2022-09-17T18:36:34.152Z,3.78
2022-09-17T18:41:52.615Z,5.53
2022-09-17T18:44:21.610Z,4.30
2022-09-17T18:46:49.919Z,4.25
2022-09-17T18:49:17.594Z,5.18
2022-09-17T18:51:44.433Z,5.07
2022-09-17T18:54:12.763Z,5.00
2022-09-17T18:56:41.501Z,5.13
2022-09-17T18:59:09.130Z,5.18
2022-09-17T19:01:36.405Z,4.75
2022-09-17T19:04:04.221Z,5.22
2022-09-17T19:06:32.225Z,4.93
2022-09-17T19:09:01.144Z,4.55
2022-09-17T19:11:28.400Z,4.70
2022-09-17T19:13:55.731Z,4.80
2022-09-17T19:16:22.978Z,5.07
2022-09-17T19:18:51.460Z,5.30
2022-09-17T19:21:21.509Z,4.88
2022-09-17T19:23:50.494Z,4.93
2022-09-17T19:26:22.815Z,5.38
2022-09-17T19:28:58.128Z,5.55
2022-09-17T19:31:26.084Z,5.70
2022-09-17T19:33:53.999Z,3.67
2022-09-17T19:36:21.266Z,5.20
2022-09-17T19:38:48.510Z,5.60
2022-09-17T19:41:20.671Z,5.82
2022-09-17T19:43:47.914Z,5.57
2022-09-17T19:46:17.940Z,5.90
2022-09-17T19:48:54.493Z,6.10
2022-09-17T19:51:23.346Z,4.03
2022-09-17T19:53:50.745Z,6.18
2022-09-17T19:56:20.488Z,5.63
2022-09-17T19:58:48.548Z,5.40
2022-09-17T20:01:16.090Z,6.00
2022-09-17T20:03:44.912Z,6.00
2022-09-17T20:06:14.236Z,5.90
2022-09-17T20:08:49.145Z,6.00
2022-09-17T20:11:17.796Z,5.85
2022-09-17T20:13:44.828Z,6.32
2022-09-17T20:16:18.557Z,4.22
2022-09-17T20:18:46.985Z,5.50
2022-09-17T20:21:19.759Z,6.40
2022-09-17T20:23:47.201Z,6.70
2022-09-17T20:26:15.047Z,7.03
2022-09-17T20:28:44.494Z,4.97
2022-09-17T20:31:16.659Z,5.63
2022-09-17T20:33:44.258Z,6.25
2022-09-17T20:36:14.301Z,5.53
2022-09-17T20:39:10.766Z,5.50
2022-09-17T20:41:32.567Z,6.53
2022-09-17T20:43:59.416Z,5.55
2022-09-17T20:46:29.355Z,5.05
2022-09-17T20:48:58.597Z,6.93
2022-09-17T20:51:30.303Z,5.30
2022-09-17T20:53:57.927Z,5.80
2022-09-17T20:56:28.270Z,7.32
2022-09-17T20:59:18.518Z,7.03
2022-09-17T21:01:47.273Z,5.60
2022-09-17T21:04:16.759Z,5.70
2022-09-17T21:06:44.913Z,7.15
2022-09-17T21:09:16.472Z,5.47
2022-09-17T21:11:48.424Z,5.20
2022-09-17T21:14:17.219Z,5.50
2022-09-17T21:16:45.125Z,7.65
2022-09-17T21:19:12.941Z,5.75
2022-09-17T21:21:39.762Z,6.13
2022-09-17T21:24:07.535Z,7.88
2022-09-17T21:26:34.987Z,6.22
2022-09-17T21:29:03.258Z,5.72
2022-09-17T21:31:33.375Z,5.90
2022-09-17T21:34:06.241Z,6.68
2022-09-17T21:36:35.434Z,5.93
2022-09-17T21:39:11.856Z,6.10
2022-09-17T21:41:42.538Z,5.97
2022-09-17T21:44:11.466Z,6.53
2022-09-17T21:46:39.459Z,6.53
2022-09-17T21:49:07.052Z,6.15
2022-09-17T21:51:39.049Z,7.30
2022-09-17T21:54:15.898Z,5.80
2022-09-17T21:56:44.036Z,5.88
2022-09-17T21:59:14.065Z,6.57
2022-09-17T22:01:46.161Z,5.95
2022-09-17T22:04:18.047Z,6.15
2022-09-17T22:06:46.502Z,6.20
2022-09-17T22:09:19.675Z,5.93
2022-09-17T22:11:46.843Z,7.00
2022-09-17T22:14:19.849Z,6.20
2022-09-17T22:16:50.542Z,6.13
2022-09-17T22:19:19.623Z,6.63
2022-09-17T22:21:51.057Z,6.40
2022-09-17T22:24:19.983Z,5.45
2022-09-17T22:26:54.118Z,6.20
2022-09-17T22:29:25.436Z,7.13
2022-09-17T22:31:53.132Z,6.60
2022-09-17T22:34:22.780Z,6.13
2022-09-17T22:36:50.128Z,6.45
2022-09-17T22:39:19.065Z,7.72
2022-09-17T22:41:46.055Z,6.18
2022-09-17T22:44:16.608Z,6.60
2022-09-17T22:46:44.248Z,6.60
2022-09-17T22:49:11.897Z,6.78
2022-09-17T22:51:39.796Z,6.55
2022-09-17T22:54:12.851Z,5.95
2022-09-17T22:56:40.485Z,5.85
2022-09-17T22:59:07.680Z,6.85
2022-09-17T23:01:36.488Z,5.90
2022-09-17T23:04:04.791Z,6.75
2022-09-17T23:06:35.088Z,6.20
2022-09-17T23:09:03.419Z,5.43
2022-09-17T23:11:33.184Z,5.75
2022-09-17T23:14:03.043Z,6.15
2022-09-17T23:16:35.212Z,6.70
2022-09-17T23:19:02.121Z,5.82
2022-09-17T23:21:29.168Z,6.00
2022-09-17T23:23:55.985Z,5.32
2022-09-17T23:26:24.392Z,6.38
2022-09-17T23:28:51.936Z,5.90
2022-09-17T23:31:24.574Z,5.47
2022-09-17T23:33:52.431Z,8.50
2022-09-17T23:36:24.304Z,8.40
2022-09-17T23:38:52.457Z,5.60
2022-09-17T23:41:24.659Z,5.97
2022-09-17T23:43:54.187Z,6.15
2022-09-17T23:46:23.235Z,5.68
2022-09-17T23:48:51.297Z,5.53
2022-09-17T23:51:18.173Z,5.47
2022-09-17T23:53:45.003Z,6.93
2022-09-17T23:56:13.896Z,6.63
2022-09-17T23:58:41.327Z,5.68
